Newfield, NY (14867)

3:25 PM EDT on August 27, 2015 (GMT -0400)
Southeastern Newfield 1780' | | Change Station
CLOSE
Current Station
Personal Weather Station
Location: New York, NY
Elevation: 1781 ft
Nearby Weather Stations

Elev 1781 ft 42.31 °N, 76.55 °W | Updated 37 seconds ago

Overcast
Overcast
63.9 °F
Feels Like 63.9 °F
N
0.9
Wind Variable Wind from West
Gusts 2.5 mph

Today
High -- | Low -- °F
--% Chance of Precip.
Yesterday
High -- | Low -- °F
Precip. -- in
6:26 AM 7:49 PM
Waxing Gibbous, 94% visible
Pressure 30.14 in
Visibility 10.0 miles
Clouds Few 3000 ft
Mostly Cloudy 6000 ft
Dew Point 38 °F
Humidity 38%
Rainfall 0.00 in
Snow Depth Not available.
UV 4 out of 12
Pollen 8.00 out of 12
Air Quality Not available.
Flu Activity Not available.
METAR KITH 271856Z 33011KT 10SM FEW030 BKN060 20/12 A3014 RMK AO2 T02000122 SLP204
Pressure 30.14 in
Visibility 10.0 miles
Clouds Few 3000 ft
Mostly Cloudy 6000 ft
Dew Point 38 °F
Humidity 38%
Rainfall 0.00 in
Snow Depth Not available.
UV 4 out of 12
Pollen 8.00 out of 12
Air Quality Not available.
Flu Activity Not available.
METAR KITH 271856Z 33011KT 10SM FEW030 BKN060 20/12 A3014 RMK AO2 T02000122 SLP204

10-Day Weather Forecast

×

Almanac

Astronomy

Aug. 27, 2015 Rise Set
Actual Time
Civil Twilight
Nautical Twilight
Astronomical Twilight
Moon
Length of Visible Light
Length of Day
Tomorrow will be .
, % of the Moon is Illuminated

Today's Extremes

State Highs State Lows

Community

WunderPhotos

Upload Photos

1,850,195 photos uploaded!

WunderBlogs® & News

Nearby

Air Quality

  Air Quality AQ Index Pollutant
Not available.

Snow Depth

Station Depth Elevation

Earthquake Activity

City Distance Mag. Time & Date
Minimum magnitude displayed is 2.5.

Coastal Water Temperatures

Place Temperature

Stations

Nearby Weather Stations

Station Location Temp. Windchill Dew Point Humidity Wind Precip. Elev Updated Type